Time;durP1;ratioP1;P1;durP2;ratioP2;P2;SDS_P1;SDS_P2;PMS_P1;PMS_P2;Temp;Humidity;BMP_temperature;BMP_pressure;BME280_temperature;BME280_humidity;BME280_pressure;Samples;Min_cycle;Max_cycle;Signal;HPM_P1;HPM_P2
2022/11/11 00:01:55;;;;;;;;;;;;;;;14.81;72.32;102562.28;5062522;28;19919;-86
2022/11/11 00:04:20;;;;;;;;;;;;;;;14.78;72.38;102557.72;5072267;28;20351;-84
2022/11/11 00:06:46;;;;;;;;;;;;;;;14.74;72.34;102552.19;5079626;28;19912;-84
2022/11/11 00:09:11;;;;;;;;;;;;;;;14.73;72.27;102553.91;5078533;28;20426;-85
2022/11/11 00:11:37;;;;;;;;;;;;;;;14.74;72.42;102552.19;5087131;28;20313;-86
2022/11/11 00:14:02;;;;;;;;;;;;;;;14.76;72.18;102556.72;5063778;28;20397;-87
2022/11/11 00:25:04;;;;;;;;;;;;;;;14.73;72.32;102548.66;5088545;28;20395;-87
2022/11/11 00:27:25;;;;;;;;;;;;;;;14.70;72.26;102548.44;5071907;28;19919;-86
2022/11/11 00:29:50;;;;;;;;;;;;;;;14.69;72.31;102548.31;5079994;28;19916;-86
2022/11/11 00:32:30;;;;;;;;;;;;;;;14.72;72.13;102552.06;5080054;28;20393;-87
2022/11/11 00:37:41;;;;;;;;;;;;;;;14.73;72.12;102551.28;5065395;28;19935;-87
2022/11/11 00:40:08;;;;;;;;;;;;;;;14.73;71.86;102552.97;5082734;28;20028;-87
2022/11/11 00:42:33;;;;;;;;;;;;;;;14.70;71.90;102551.06;5069982;28;19916;-88
2022/11/11 00:44:59;;;;;;;;;;;;;;;14.71;71.75;102545.00;5072702;28;19918;-88
2022/11/11 00:52:57;;;;;;;;;;;;;;;14.68;71.85;102538.63;5084416;28;19920;-86
2022/11/11 00:55:22;;;;;;;;;;;;;;;14.69;71.71;102537.78;5070849;28;19912;-88
2022/11/11 00:57:48;;;;;;;;;;;;;;;14.69;71.86;102533.47;5058941;28;20001;-88
2022/11/11 01:00:13;;;;;;;;;;;;;;;14.68;71.53;102533.38;5068473;28;20388;-87
2022/11/11 01:02:39;;;;;;;;;;;;;;;14.65;71.61;102527.09;5061190;28;19908;-88
2022/11/11 01:05:04;;;;;;;;;;;;;;;14.63;71.99;102526.09;5069177;28;20023;-87
2022/11/11 01:07:29;;;;;;;;;;;;;;;14.64;71.86;102521.72;5070471;28;19920;-87
2022/11/11 01:09:55;;;;;;;;;;;;;;;14.64;71.59;102527.88;5071681;28;19920;-86
2022/11/11 01:12:20;;;;;;;;;;;;;;;14.62;71.54;102525.97;5071704;28;19912;-88
2022/11/11 01:14:46;;;;;;;;;;;;;;;14.65;71.62;102531.44;5072999;28;19912;-87
2022/11/11 01:17:11;;;;;;;;;;;;;;;14.61;71.55;102527.69;5071158;28;20400;-87
2022/11/11 01:19:36;;;;;;;;;;;;;;;14.62;71.49;102525.97;5070776;28;20385;-86
2022/11/11 01:22:02;;;;;;;;;;;;;;;14.61;71.61;102524.16;5073791;28;19923;-87
2022/11/11 01:24:27;;;;;;;;;;;;;;;14.60;71.60;102531.13;5071176;28;20007;-86
2022/11/11 01:26:53;;;;;;;;;;;;;;;14.62;71.44;102528.59;5072634;28;20446;-87
2022/11/11 01:29:18;;;;;;;;;;;;;;;14.61;71.37;102529.44;5069067;28;20381;-87
2022/11/11 01:31:44;;;;;;;;;;;;;;;14.61;71.42;102522.44;5078436;28;20396;-86
2022/11/11 01:34:09;;;;;;;;;;;;;;;14.60;71.35;102527.59;5071420;28;19919;-87
2022/11/11 01:36:34;;;;;;;;;;;;;;;14.57;71.54;102528.31;5074412;28;19912;-87
2022/11/11 01:39:00;;;;;;;;;;;;;;;14.60;71.46;102531.13;5056664;28;20392;-87
2022/11/11 01:41:31;;;;;;;;;;;;;;;14.60;71.26;102524.97;5069640;28;20366;-87
2022/11/11 01:44:20;;;;;;;;;;;;;;;14.57;71.46;102528.31;5070039;28;20394;-87
2022/11/11 01:46:50;;;;;;;;;;;;;;;14.56;71.43;102526.50;5059699;28;19919;-87
2022/11/11 01:49:19;;;;;;;;;;;;;;;14.59;71.21;102517.91;5069378;28;20303;-87
2022/11/11 01:51:53;;;;;;;;;;;;;;;14.54;71.69;102516.63;5080644;28;20015;-88
2022/11/11 01:54:27;;;;;;;;;;;;;;;14.53;71.57;102512.19;5075728;28;20391;-88
2022/11/11 01:56:56;;;;;;;;;;;;;;;14.52;71.50;102520.88;5072575;28;19961;-87
2022/11/11 01:59:21;;;;;;;;;;;;;;;14.53;71.44;102522.72;5072302;28;20003;-87
2022/11/11 02:01:46;;;;;;;;;;;;;;;14.53;71.53;102523.63;5073169;28;19964;-88
2022/11/11 02:07:00;;;;;;;;;;;;;;;14.48;71.18;102521.47;5080628;28;20004;-86
2022/11/11 02:09:25;;;;;;;;;;;;;;;14.49;71.21;102526.84;5074734;28;19917;-87
2022/11/11 02:14:41;;;;;;;;;;;;;;;14.46;71.33;102526.66;5079745;28;19919;-87
2022/11/11 02:17:12;;;;;;;;;;;;;;;14.44;71.31;102531.81;5073245;28;20412;-88
2022/11/11 02:19:42;;;;;;;;;;;;;;;14.46;71.25;102524.94;5079067;28;20006;-87
2022/11/11 02:22:07;;;;;;;;;;;;;;;14.44;71.23;102526.56;5060339;28;20404;-88
2022/11/11 02:24:33;;;;;;;;;;;;;;;14.47;71.19;102520.56;5072750;28;19924;-88
2022/11/11 02:26:58;;;;;;;;;;;;;;;14.46;71.04;102519.69;5072410;28;19920;-86
2022/11/11 02:29:23;;;;;;;;;;;;;;;14.48;71.21;102526.75;5055297;28;20373;-88
2022/11/11 02:31:50;;;;;;;;;;;;;;;14.43;71.31;102524.75;5083387;28;20357;-88
2022/11/11 02:34:15;;;;;;;;;;;;;;;14.43;71.31;102527.38;5083362;28;19912;-88
2022/11/11 02:36:41;;;;;;;;;;;;;;;14.45;71.02;102524.81;5070600;28;19919;-87
2022/11/11 02:39:06;;;;;;;;;;;;;;;14.44;71.27;102518.66;5081410;28;20392;-88
2022/11/11 02:44:15;;;;;;;;;;;;;;;14.40;71.20;102521.91;5074542;28;19915;-88
2022/11/11 02:46:41;;;;;;;;;;;;;;;14.42;71.33;102520.28;5079972;28;19912;-88
2022/11/11 02:49:06;;;;;;;;;;;;;;;14.38;71.43;102526.13;5081733;28;19912;-87
2022/11/11 02:51:32;;;;;;;;;;;;;;;14.42;71.14;102519.38;5089629;28;19912;-87
2022/11/11 02:53:57;;;;;;;;;;;;;;;14.40;70.84;102523.63;5073756;28;20282;-85
2022/11/11 02:59:11;;;;;;;;;;;;;;;14.38;70.97;102514.72;5062109;28;19991;-88
2022/11/11 03:01:36;;;;;;;;;;;;;;;14.37;71.10;102526.03;5071963;28;20368;-88
2022/11/11 03:04:02;;;;;;;;;;;;;;;14.38;71.09;102526.13;5079790;28;19908;-87
2022/11/11 03:06:28;;;;;;;;;;;;;;;14.37;71.09;102520.78;5058239;28;20417;-88
2022/11/11 03:08:54;;;;;;;;;;;;;;;14.36;71.12;102521.59;5076787;28;19916;-89
2022/11/11 03:11:26;;;;;;;;;;;;;;;14.34;71.30;102524.13;5075444;28;19916;-88
2022/11/11 03:13:55;;;;;;;;;;;;;;;14.30;71.07;102522.09;5072550;28;20014;-88
2022/11/11 03:19:05;;;;;;;;;;;;;;;14.32;71.16;102516.94;5068229;28;20385;-88
2022/11/11 03:21:31;;;;;;;;;;;;;;;14.35;70.89;102519.75;5081320;28;19912;-88
2022/11/11 03:23:56;;;;;;;;;;;;;;;14.32;70.93;102520.47;5061144;28;19915;-88
2022/11/11 03:26:22;;;;;;;;;;;;;;;14.33;70.72;102522.31;5061252;28;19912;-88
2022/11/11 03:28:47;;;;;;;;;;;;;;;14.30;70.72;102524.72;5062265;28;20436;-89
2022/11/11 03:31:13;;;;;;;;;;;;;;;14.28;70.79;102528.06;5059487;28;19917;-88
2022/11/11 03:33:38;;;;;;;;;;;;;;;14.31;70.81;102530.88;5071950;28;20508;-89
2022/11/11 03:36:04;;;;;;;;;;;;;;;14.29;71.04;102535.09;5069674;28;19930;-89
2022/11/11 03:38:29;;;;;;;;;;;;;;;14.31;70.85;102537.06;5083159;28;20378;-88
2022/11/11 03:40:55;;;;;;;;;;;;;;;14.29;70.53;102533.41;5072333;28;19918;-89
2022/11/11 03:43:21;;;;;;;;;;;;;;;14.24;70.90;102543.63;5076438;28;19912;-89
2022/11/11 03:45:48;;;;;;;;;;;;;;;14.24;70.58;102547.94;5085576;28;20381;-88
2022/11/11 03:48:14;;;;;;;;;;;;;;;14.21;70.76;102546.03;5073798;28;19924;-88
2022/11/11 03:50:39;;;;;;;;;;;;;;;14.22;70.55;102544.31;5084921;28;19912;-88
2022/11/11 03:53:05;;;;;;;;;;;;;;;14.21;70.60;102542.50;5080218;28;20409;-88
2022/11/11 03:55:30;;;;;;;;;;;;;;;14.23;70.54;102547.03;5077976;28;19943;-87
2022/11/11 03:57:56;;;;;;;;;;;;;;;14.21;70.51;102543.41;5067658;28;19912;-86
2022/11/11 04:00:26;;;;;;;;;;;;;;;14.22;70.36;102541.69;5076869;28;19913;-87
2022/11/11 04:11:11;;;;;;;;;;;;;;;14.19;70.53;102552.91;5071770;28;20020;-86
2022/11/11 04:16:21;;;;;;;;;;;;;;;14.17;70.73;102549.25;5080037;28;20400;-86
2022/11/11 04:21:51;;;;;;;;;;;;;;;14.16;70.25;102554.41;5078867;28;19969;-86
2022/11/11 04:27:01;;;;;;;;;;;;;;;14.15;70.49;102550.88;5063491;28;19965;-87
2022/11/11 04:29:27;;;;;;;;;;;;;;;14.12;70.79;102553.31;5069782;28;20511;-88
2022/11/11 04:34:37;;;;;;;;;;;;;;;14.13;70.41;102551.56;5059053;28;20006;-87
2022/11/11 04:37:03;;;;;;;;;;;;;;;14.12;70.50;102550.69;5056305;28;20309;-84
2022/11/11 04:42:12;;;;;;;;;;;;;;;14.10;70.56;102554.91;5059775;28;19920;-89
2022/11/11 04:47:21;;;;;;;;;;;;;;;14.07;70.55;102551.16;5069733;28;19915;-87
2022/11/11 04:49:46;;;;;;;;;;;;;;;14.04;70.72;102550.13;5069889;28;20301;-87
2022/11/11 04:52:30;;;;;;;;;;;;;;;14.05;70.90;102557.22;5070876;28;19908;-87
2022/11/11 04:57:41;;;;;;;;;;;;;;;14.07;70.29;102562.56;5078566;28;19969;-86
2022/11/11 05:00:07;;;;;;;;;;;;;;;14.05;70.39;102562.50;5071329;28;19908;-85
2022/11/11 05:05:16;;;;;;;;;;;;;;;14.05;70.26;102564.19;5070441;28;19935;-86
2022/11/11 05:10:26;;;;;;;;;;;;;;;14.06;70.07;102563.38;5070690;28;19954;-85
2022/11/11 05:12:51;;;;;;;;;;;;;;;14.05;70.17;102565.13;5082183;28;19948;-86
2022/11/11 05:26:18;;;;;;;;;;;;;;;14.01;70.21;102577.91;5053577;28;20000;-84
2022/11/11 05:28:45;;;;;;;;;;;;;;;14.02;70.24;102585.00;5069507;28;19944;-85
2022/11/11 05:31:11;;;;;;;;;;;;;;;14.00;70.34;102591.84;5068012;28;20006;-85
2022/11/11 05:33:36;;;;;;;;;;;;;;;13.98;70.41;102590.84;5058850;28;20550;-83
2022/11/11 05:36:02;;;;;;;;;;;;;;;14.00;70.35;102594.47;5051415;28;20476;-82
2022/11/11 05:38:28;;;;;;;;;;;;;;;14.02;70.16;102599.03;5053923;28;20431;-83
2022/11/11 05:40:54;;;;;;;;;;;;;;;14.01;70.34;102596.28;5051224;28;20301;-82
2022/11/11 05:43:20;;;;;;;;;;;;;;;14.02;70.06;102606.00;5066859;28;19909;-83
2022/11/11 05:45:45;;;;;;;;;;;;;;;13.98;70.22;102602.25;5055358;28;19912;-85
2022/11/11 05:48:10;;;;;;;;;;;;;;;13.96;70.39;102602.94;5069355;28;20007;-84
2022/11/11 05:50:40;;;;;;;;;;;;;;;13.96;70.46;102608.22;5070177;28;20381;-84
2022/11/11 05:53:05;;;;;;;;;;;;;;;13.96;70.54;102608.22;5085891;28;19923;-84
2022/11/11 05:55:30;;;;;;;;;;;;;;;13.96;70.52;102609.09;5070233;28;19999;-84
2022/11/11 05:57:56;;;;;;;;;;;;;;;13.98;70.42;102611.84;5065829;28;19962;-85
2022/11/11 06:00:21;;;;;;;;;;;;;;;13.92;70.69;102612.31;5068976;28;20129;-85
2022/11/11 06:02:47;;;;;;;;;;;;;;;13.97;70.39;102616.22;5068809;28;20388;-84
2022/11/11 06:05:12;;;;;;;;;;;;;;;13.97;70.34;102615.28;5069106;28;19912;-85
2022/11/11 06:07:39;;;;;;;;;;;;;;;13.93;70.56;102613.25;5078742;28;20386;-85
2022/11/11 06:13:00;;;;;;;;;;;;;;;13.96;70.61;102618.72;5065153;28;19935;-85
2022/11/11 06:15:27;;;;;;;;;;;;;;;13.93;70.50;102622.03;5063424;28;20351;-84
2022/11/11 06:17:52;;;;;;;;;;;;;;;13.85;70.73;102617.97;5079543;28;19913;-88
2022/11/11 06:20:18;;;;;;;;;;;;;;;13.89;70.51;102622.63;5071854;28;19919;-88
2022/11/11 06:22:55;;;;;;;;;;;;;;;13.98;70.00;102625.91;5068862;28;19939;-88
2022/11/11 06:28:05;;;;;;;;;;;;;;;13.89;70.44;102625.25;5064143;28;20025;-86
2022/11/11 06:30:31;;;;;;;;;;;;;;;13.94;70.30;102633.47;5066026;28;19926;-83
2022/11/11 06:32:56;;;;;;;;;;;;;;;13.95;70.38;102644.09;5057104;28;20488;-87
2022/11/11 06:35:22;;;;;;;;;;;;;;;13.93;70.45;102640.44;5067551;28;19912;-87
2022/11/11 06:37:47;;;;;;;;;;;;;;;13.91;70.60;102638.50;5056085;28;19908;-86
2022/11/11 06:40:13;;;;;;;;;;;;;;;13.92;70.38;102633.34;5056359;28;20464;-88
2022/11/11 06:42:51;;;;;;;;;;;;;;;13.90;70.70;102640.19;5067228;28;19926;-94
2022/11/11 06:45:17;;;;;;;;;;;;;;;13.95;70.44;102638.81;5073614;28;19945;-91
2022/11/11 06:47:56;;;;;;;;;;;;;;;13.92;70.53;102627.19;5087806;28;19912;-93
2022/11/11 06:50:23;;;;;;;;;;;;;;;13.93;70.37;102621.16;5072778;28;19938;-92
2022/11/11 06:52:52;;;;;;;;;;;;;;;13.88;70.74;102633.03;5062366;28;19918;-91
2022/11/11 06:55:21;;;;;;;;;;;;;;;13.91;70.69;102633.25;5089439;28;19912;-93
2022/11/11 06:57:48;;;;;;;;;;;;;;;13.93;70.59;102634.28;5085417;28;20374;-90
2022/11/11 07:00:16;;;;;;;;;;;;;;;13.90;70.83;102636.66;5067288;28;20382;-87
2022/11/11 07:02:46;;;;;;;;;;;;;;;13.97;70.51;102638.91;5073837;28;19918;-90
2022/11/11 07:05:12;;;;;;;;;;;;;;;13.93;70.77;102634.28;5071631;28;19916;-83
2022/11/11 07:07:37;;;;;;;;;;;;;;;13.93;70.71;102639.53;5076550;28;19916;-84
2022/11/11 07:10:06;;;;;;;;;;;;;;;13.93;70.81;102639.53;5068619;28;19916;-93
2022/11/11 07:12:31;;;;;;;;;;;;;;;13.93;70.90;102634.28;5078398;28;20374;-90
2022/11/11 07:14:56;;;;;;;;;;;;;;;13.93;70.86;102629.94;5072041;28;19909;-87
2022/11/11 07:17:29;;;;;;;;;;;;;;;13.80;71.21;102632.47;5073165;28;19908;-91
2022/11/11 07:19:55;;;;;;;;;;;;;;;13.87;71.17;102631.22;5055413;28;20031;-92
2022/11/11 07:22:21;;;;;;;;;;;;;;;13.95;71.05;102635.25;5070635;28;19908;-88
2022/11/11 07:24:46;;;;;;;;;;;;;;;13.89;71.02;102641.03;5053999;28;19916;-87
2022/11/11 07:27:12;;;;;;;;;;;;;;;13.82;71.35;102641.38;5055233;28;19909;-83
2022/11/11 07:29:37;;;;;;;;;;;;;;;13.80;71.38;102640.34;5072511;28;20399;-85
2022/11/11 07:32:03;;;;;;;;;;;;;;;13.76;71.65;102631.38;5061623;28;19927;-85
2022/11/11 07:34:28;;;;;;;;;;;;;;;13.80;71.55;102635.09;5055850;28;20394;-86
2022/11/11 07:36:53;;;;;;;;;;;;;;;13.79;71.39;102628.94;5056293;28;20003;-85
2022/11/11 07:39:19;;;;;;;;;;;;;;;13.78;71.60;102634.09;5059459;28;20048;-87
2022/11/11 07:41:46;;;;;;;;;;;;;;;13.75;71.82;102634.78;5069846;28;19919;-90
2022/11/11 07:44:13;;;;;;;;;;;;;;;13.74;71.78;102634.69;5053230;28;19908;-90
2022/11/11 07:46:39;;;;;;;;;;;;;;;13.74;71.67;102639.94;5055601;28;19915;-88
2022/11/11 07:49:06;;;;;;;;;;;;;;;13.69;72.05;102643.94;5072166;28;19912;-88
2022/11/11 07:51:32;;;;;;;;;;;;;;;13.67;72.29;102642.91;5055653;28;19936;-88
2022/11/11 07:53:57;;;;;;;;;;;;;;;13.68;71.88;102642.13;5072829;28;20356;-88
2022/11/11 07:56:23;;;;;;;;;;;;;;;13.71;72.19;102643.22;5055381;28;20134;-92
2022/11/11 07:58:49;;;;;;;;;;;;;;;13.70;71.97;102646.69;5073233;28;20408;-90
2022/11/11 08:01:14;;;;;;;;;;;;;;;13.72;72.18;102650.31;5055296;28;19912;-85
2022/11/11 08:03:48;;;;;;;;;;;;;;;13.78;71.88;102649.88;5069080;28;20388;-90
2022/11/11 08:06:21;;;;;;;;;;;;;;;13.85;71.56;102646.84;5065685;28;19919;-89
2022/11/11 08:08:47;;;;;;;;;;;;;;;13.90;71.31;102650.72;5059672;28;20401;-88
2022/11/11 08:11:12;;;;;;;;;;;;;;;13.91;71.28;102651.63;5075138;28;19913;-87
2022/11/11 08:13:41;;;;;;;;;;;;;;;13.96;71.22;102651.13;5068950;28;19909;-87
2022/11/11 08:16:07;;;;;;;;;;;;;;;13.93;71.22;102648.31;5076246;28;19908;-88
2022/11/11 08:18:33;;;;;;;;;;;;;;;13.91;71.62;102647.28;5066790;28;19908;-88
2022/11/11 08:20:59;;;;;;;;;;;;;;;13.88;71.47;102649.69;5060606;28;19908;-89
2022/11/11 08:23:31;;;;;;;;;;;;;;;13.91;71.55;102639.41;5068811;28;20534;-89
2022/11/11 08:25:59;;;;;;;;;;;;;;;13.94;71.38;102644.88;5071781;28;20393;-89
2022/11/11 08:28:24;;;;;;;;;;;;;;;13.96;71.35;102645.88;5044065;28;20411;-90
2022/11/11 08:30:50;;;;;;;;;;;;;;;13.97;71.32;102646.78;5071869;28;20003;-88
2022/11/11 08:33:15;;;;;;;;;;;;;;;13.97;71.37;102652.03;5070372;28;19946;-89
2022/11/11 08:35:40;;;;;;;;;;;;;;;13.97;71.48;102647.72;5085589;28;19957;-89
2022/11/11 08:38:06;;;;;;;;;;;;;;;13.96;71.56;102647.59;5072446;28;19909;-89
2022/11/11 08:40:31;;;;;;;;;;;;;;;13.97;71.36;102650.34;5085981;28;19915;-89
2022/11/11 08:43:02;;;;;;;;;;;;;;;13.94;71.56;102655.38;5055291;28;20441;-90
2022/11/11 08:45:27;;;;;;;;;;;;;;;13.94;71.78;102655.38;5086274;28;19908;-89
2022/11/11 08:47:52;;;;;;;;;;;;;;;13.90;71.97;102653.34;5054895;28;20323;-88
2022/11/11 08:50:18;;;;;;;;;;;;;;;13.90;72.16;102652.44;5056255;28;20290;-89
2022/11/11 08:52:47;;;;;;;;;;;;;;;13.58;71.50;102581.06;5071794;28;20424;-89
2022/11/11 08:55:13;;;;;;;;;;;;;;;13.92;72.03;102653.44;5087709;28;19912;-87
2022/11/11 08:57:38;;;;;;;;;;;;;;;13.97;71.77;102659.94;5088187;28;19912;-88
2022/11/11 09:00:05;;;;;;;;;;;;;;;13.88;72.13;102656.66;5066963;28;19962;-88
2022/11/11 09:02:30;;;;;;;;;;;;;;;13.90;71.96;102649.81;5062171;28;20019;-88
2022/11/11 09:04:56;;;;;;;;;;;;;;;13.94;71.90;102649.22;5046946;28;19908;-89
2022/11/11 09:07:21;;;;;;;;;;;;;;;13.95;71.89;102653.66;5054238;28;19952;-89
2022/11/11 09:09:47;;;;;;;;;;;;;;;13.90;72.04;102648.06;5041073;28;20385;-87
2022/11/11 09:12:14;;;;;;;;;;;;;;;13.89;72.11;102650.63;5057023;28;19962;-88
2022/11/11 09:14:39;;;;;;;;;;;;;;;13.87;72.15;102646.97;5043056;28;20008;-88
2022/11/11 09:17:05;;;;;;;;;;;;;;;13.93;72.17;102650.94;5069856;28;19940;-89
2022/11/11 09:19:35;;;;;;;;;;;;;;;14.03;71.76;102648.16;5054981;28;20475;-90
2022/11/11 09:22:00;;;;;;;;;;;;;;;13.97;71.83;102645.09;5069539;28;19989;-87
2022/11/11 09:24:27;;;;;;;;;;;;;;;13.97;71.84;102636.28;5063695;28;20381;-88
2022/11/11 09:26:52;;;;;;;;;;;;;;;13.95;72.09;102643.16;5067220;28;19908;-89
2022/11/11 09:29:19;;;;;;;;;;;;;;;13.97;71.59;102642.47;5072368;28;20377;-89
2022/11/11 09:31:46;;;;;;;;;;;;;;;13.95;72.05;102640.50;5087311;28;19913;-89
2022/11/11 09:34:13;;;;;;;;;;;;;;;14.03;71.82;102641.97;5056279;28;19958;-89
2022/11/11 09:36:38;;;;;;;;;;;;;;;14.01;71.91;102638.31;5086999;28;19969;-88
2022/11/11 09:39:06;;;;;;;;;;;;;;;13.93;72.02;102640.44;5083769;28;19912;-89
2022/11/11 09:41:31;;;;;;;;;;;;;;;13.95;72.15;102637.88;5069211;28;20278;-89
2022/11/11 09:43:58;;;;;;;;;;;;;;;13.95;72.05;102641.44;5057253;28;20377;-89
2022/11/11 09:46:28;;;;;;;;;;;;;;;14.00;71.95;102644.41;5070953;28;20002;-88
2022/11/11 09:49:13;;;;;;;;;;;;;;;13.99;71.75;102648.75;5060036;28;19912;-87
2022/11/11 09:51:58;;;;;;;;;;;;;;;14.01;71.88;102640.94;5067829;28;19920;-88
2022/11/11 09:54:44;;;;;;;;;;;;;;;13.95;72.10;102641.44;5085263;28;19966;-89
2022/11/11 09:57:18;;;;;;;;;;;;;;;13.94;72.23;102636.09;5072553;28;20003;-89
2022/11/11 09:59:48;;;;;;;;;;;;;;;14.00;72.00;102633.88;5053958;28;19995;-89
2022/11/11 10:02:18;;;;;;;;;;;;;;;13.99;71.68;102635.63;5054156;28;19966;-89
2022/11/11 10:04:52;;;;;;;;;;;;;;;13.94;72.07;102638.72;5055613;28;19954;-88
2022/11/11 10:07:23;;;;;;;;;;;;;;;13.96;72.00;102637.09;5062723;28;19916;-89
2022/11/11 10:09:53;;;;;;;;;;;;;;;13.91;72.22;102630.63;5082580;28;20003;-88
2022/11/11 10:12:19;;;;;;;;;;;;;;;13.89;72.41;102632.25;5091693;28;19908;-89
2022/11/11 10:14:45;;;;;;;;;;;;;;;13.94;72.13;102633.47;5058162;28;19996;-88
2022/11/11 10:17:30;;;;;;;;;;;;;;;13.83;72.47;102630.97;5069321;28;19948;-89
2022/11/11 10:19:57;;;;;;;;;;;;;;;13.87;72.41;102634.75;5074500;28;19916;-88
2022/11/11 10:22:36;;;;;;;;;;;;;;;13.91;72.29;102633.25;5077310;28;19915;-89
2022/11/11 10:25:15;;;;;;;;;;;;;;;13.83;72.30;102625.72;5060342;28;19908;-87
2022/11/11 10:27:44;;;;;;;;;;;;;;;13.84;72.40;102617.06;5083810;28;19950;-89
2022/11/11 10:30:17;;;;;;;;;;;;;;;13.79;72.64;102621.06;5067308;28;20362;-90
2022/11/11 10:32:45;;;;;;;;;;;;;;;13.80;72.61;102617.66;5074243;28;19909;-91
2022/11/11 10:35:16;;;;;;;;;;;;;;;13.82;72.60;102618.66;5057724;28;19912;-90
2022/11/11 10:37:43;;;;;;;;;;;;;;;13.83;72.47;102617.84;5072026;28;19908;-90
2022/11/11 10:40:12;;;;;;;;;;;;;;;13.79;72.67;102613.19;5078767;28;19992;-88
2022/11/11 10:42:39;;;;;;;;;;;;;;;13.82;72.54;102613.41;5069062;28;19908;-90
2022/11/11 10:45:10;;;;;;;;;;;;;;;13.86;72.35;102606.66;5055049;28;19966;-88
2022/11/11 10:47:38;;;;;;;;;;;;;;;13.82;72.54;102610.78;5057295;28;19915;-91
2022/11/11 10:50:25;;;;;;;;;;;;;;;13.87;72.44;102611.09;5090934;28;19916;-88
2022/11/11 10:52:54;;;;;;;;;;;;;;;13.87;72.62;102610.22;5073578;28;20301;-90
2022/11/11 10:55:33;;;;;;;;;;;;;;;13.83;72.68;102609.06;5074101;28;20313;-90
2022/11/11 10:58:14;;;;;;;;;;;;;;;13.82;72.60;102607.22;5057505;28;20305;-90
2022/11/11 11:00:39;;;;;;;;;;;;;;;13.92;72.36;102607.06;5074175;28;19915;-89
2022/11/11 11:03:04;;;;;;;;;;;;;;;13.92;72.38;102612.31;5073703;28;19908;-90
2022/11/11 11:05:33;;;;;;;;;;;;;;;13.89;72.39;102612.13;5075169;28;19908;-90
2022/11/11 11:08:01;;;;;;;;;;;;;;;13.84;72.44;102603.00;5073861;28;20011;-91
2022/11/11 11:10:30;;;;;;;;;;;;;;;13.92;72.77;102603.53;5068054;28;19916;-91
2022/11/11 11:12:58;;;;;;;;;;;;;;;13.92;72.40;102606.16;5082946;28;19960;-91
2022/11/11 11:15:24;;;;;;;;;;;;;;;13.91;72.53;102610.53;5067825;28;19923;-87
2022/11/11 11:18:09;;;;;;;;;;;;;;;13.85;72.66;102602.22;5079398;28;19909;-87
2022/11/11 11:20:34;;;;;;;;;;;;;;;13.87;72.84;102604.94;5068017;28;19917;-86
2022/11/11 11:23:01;;;;;;;;;;;;;;;13.98;72.23;102609.22;5079589;28;19996;-86
2022/11/11 11:25:28;;;;;;;;;;;;;;;13.93;72.43;102608.00;5068895;28;19908;-88
2022/11/11 11:28:03;;;;;;;;;;;;;;;13.92;72.50;102601.81;5069977;28;19935;-87
2022/11/11 11:30:29;;;;;;;;;;;;;;;13.98;72.13;102606.59;5069398;28;20373;-89
2022/11/11 11:32:55;;;;;;;;;;;;;;;13.92;72.38;102601.81;5072562;28;19923;-87
2022/11/11 11:35:30;;;;;;;;;;;;;;;13.89;72.54;102604.25;5059570;28;19917;-84
2022/11/11 11:37:55;;;;;;;;;;;;;;;13.96;72.08;102598.59;5072960;28;19954;-85
2022/11/11 11:40:21;;;;;;;;;;;;;;;13.91;72.29;102605.28;5072888;28;19952;-85
2022/11/11 11:42:46;;;;;;;;;;;;;;;13.83;72.60;102598.56;5069875;28;19915;-87
2022/11/11 11:45:18;;;;;;;;;;;;;;;13.90;72.39;102602.53;5061273;28;20405;-86
2022/11/11 11:47:49;;;;;;;;;;;;;;;13.90;72.60;102602.53;5061299;28;19981;-85
2022/11/11 11:50:34;;;;;;;;;;;;;;;13.91;72.46;102607.00;5073760;28;20412;-88
2022/11/11 11:53:04;;;;;;;;;;;;;;;13.87;72.73;102603.22;5072248;28;19912;-88
2022/11/11 11:55:42;;;;;;;;;;;;;;;13.87;72.56;102600.59;5063437;28;19965;-86
2022/11/11 11:58:17;;;;;;;;;;;;;;;13.94;72.32;102599.31;5074552;28;19916;-86
2022/11/11 12:01:03;;;;;;;;;;;;;;;13.91;72.60;102599.13;5077649;28;20301;-85
2022/11/11 12:03:43;;;;;;;;;;;;;;;13.95;72.32;102599.44;5095108;28;19951;-86
2022/11/11 12:06:13;;;;;;;;;;;;;;;13.94;72.29;102601.94;5070323;28;20381;-86
2022/11/11 12:08:52;;;;;;;;;;;;;;;13.99;72.26;102593.59;5066851;28;19922;-86
2022/11/11 12:11:17;;;;;;;;;;;;;;;13.96;72.27;102603.84;5076948;28;20503;-86
2022/11/11 12:13:46;;;;;;;;;;;;;;;13.98;72.47;102601.34;5071507;28;19909;-87
2022/11/11 12:16:11;;;;;;;;;;;;;;;13.91;72.62;102597.38;5071725;28;20507;-86
2022/11/11 12:18:53;;;;;;;;;;;;;;;14.00;72.33;102592.75;5083164;28;19978;-87
2022/11/11 12:21:21;;;;;;;;;;;;;;;14.00;72.29;102595.38;5069321;28;19995;-86
2022/11/11 12:23:57;;;;;;;;;;;;;;;14.00;72.40;102595.38;5069886;28;19909;-87
2022/11/11 12:26:41;;;;;;;;;;;;;;;13.97;72.29;102592.56;5072203;28;19913;-87
2022/11/11 12:29:13;;;;;;;;;;;;;;;14.04;72.24;102602.69;5056388;28;19915;-86
2022/11/11 12:31:40;;;;;;;;;;;;;;;13.94;72.42;102597.59;5071365;28;20344;-88
2022/11/11 12:34:17;;;;;;;;;;;;;;;13.90;72.63;102595.53;5068826;28;19915;-88
2022/11/11 12:36:47;;;;;;;;;;;;;;;13.98;72.24;102591.75;5068050;28;20402;-85
2022/11/11 12:39:29;;;;;;;;;;;;;;;13.95;72.57;102601.13;5053566;28;19908;-87
2022/11/11 12:42:12;;;;;;;;;;;;;;;13.94;72.47;102591.44;5068007;28;19966;-85
2022/11/11 12:44:48;;;;;;;;;;;;;;;13.94;72.46;102587.06;5063070;28;19913;-87
2022/11/11 12:47:21;;;;;;;;;;;;;;;13.93;72.48;102594.88;5069344;28;19916;-86
2022/11/11 12:50:05;;;;;;;;;;;;;;;13.90;72.56;102587.66;5052083;28;19970;-87
2022/11/11 12:52:54;;;;;;;;;;;;;;;13.88;72.67;102591.91;5064416;28;20003;-86
2022/11/11 12:55:26;;;;;;;;;;;;;;;13.96;72.37;102592.44;5055701;28;19912;-87
2022/11/11 12:57:55;;;;;;;;;;;;;;;13.91;72.87;102599.13;5070834;28;19912;-87
2022/11/11 13:00:21;;;;;;;;;;;;;;;13.93;72.81;102597.50;5066553;28;19919;-87
2022/11/11 13:02:55;;;;;;;;;;;;;;;13.94;72.56;102589.72;5072099;28;19912;-87
2022/11/11 13:05:33;;;;;;;;;;;;;;;13.94;72.47;102591.44;5079878;28;19908;-84
2022/11/11 13:08:37;;;;;;;;;;;;;;;13.93;72.64;102590.53;5060246;28;20007;-85
2022/11/11 13:11:22;;;;;;;;;;;;;;;13.93;72.70;102587.91;4985537;28;20454;-87
2022/11/11 13:13:52;;;;;;;;;;;;;;;13.94;72.65;102589.72;4990537;28;20391;-84
2022/11/11 13:16:19;;;;;;;;;;;;;;;13.91;72.74;102589.50;5032038;28;20392;-87
2022/11/11 13:18:48;;;;;;;;;;;;;;;13.90;72.75;102587.66;5051277;28;19959;-87
2022/11/11 13:21:14;;;;;;;;;;;;;;;14.00;72.54;102584.88;5067129;28;19913;-85
2022/11/11 13:23:40;;;;;;;;;;;;;;;14.02;72.42;102587.63;5067996;28;20416;-85
2022/11/11 13:26:06;;;;;;;;;;;;;;;13.95;72.43;102581.03;5071295;28;19908;-86
2022/11/11 13:28:33;;;;;;;;;;;;;;;13.98;72.61;102591.75;5067482;28;19987;-88
2022/11/11 13:31:22;;;;;;;;;;;;;;;14.01;72.57;102593.66;5070125;28;20430;-86
2022/11/11 13:33:48;;;;;;;;;;;;;;;14.03;72.26;102592.06;5058769;28;19951;-88
2022/11/11 13:36:15;;;;;;;;;;;;;;;14.07;72.14;102596.72;5055929;28;19909;-87
2022/11/11 13:38:48;;;;;;;;;;;;;;;14.01;72.48;102596.28;5059190;28;19916;-87
2022/11/11 13:41:18;;;;;;;;;;;;;;;14.05;72.18;102600.94;5057502;28;20385;-86
2022/11/11 13:43:45;;;;;;;;;;;;;;;14.03;72.17;102593.00;5064710;28;19913;-87
2022/11/11 13:46:25;;;;;;;;;;;;;;;14.07;72.16;102599.34;5057342;28;19927;-86
2022/11/11 13:48:50;;;;;;;;;;;;;;;14.11;71.86;102603.09;5071564;28;19911;-87
2022/11/11 13:51:20;;;;;;;;;;;;;;;14.06;71.94;102597.53;5083217;28;19973;-88
2022/11/11 13:53:46;;;;;;;;;;;;;;;14.01;72.16;102598.91;5059928;28;20388;-87
2022/11/11 13:56:11;;;;;;;;;;;;;;;13.96;72.54;102603.84;5057714;28;19936;-86
2022/11/11 13:58:40;;;;;;;;;;;;;;;14.00;72.44;102613.78;5084152;28;20369;-87
2022/11/11 14:01:06;;;;;;;;;;;;;;;13.94;72.68;102612.44;5083608;28;19912;-86
2022/11/11 14:03:36;;;;;;;;;;;;;;;13.97;72.36;102616.22;5079339;28;20018;-86